createdAt,value
2023-02-07T00:01:32.804Z,6.60
2023-02-07T00:04:01.880Z,6.40
2023-02-07T00:06:32.621Z,6.40
2023-02-07T00:09:02.833Z,6.40
2023-02-07T00:11:30.714Z,6.50
2023-02-07T00:14:00.169Z,6.40
2023-02-07T00:16:28.528Z,6.30
2023-02-07T00:18:59.062Z,6.40
2023-02-07T00:21:28.942Z,6.40
2023-02-07T00:23:56.735Z,6.30
2023-02-07T00:26:26.090Z,6.20
2023-02-07T00:28:55.696Z,6.30
2023-02-07T00:31:27.972Z,6.20
2023-02-07T00:33:58.294Z,6.30
2023-02-07T00:36:27.392Z,6.40
2023-02-07T00:39:01.433Z,6.30
2023-02-07T00:41:30.321Z,6.30
2023-02-07T00:44:00.344Z,6.30
2023-02-07T00:46:27.908Z,6.40
2023-02-07T00:48:55.471Z,6.20
2023-02-07T00:51:26.796Z,6.30
2023-02-07T00:53:55.791Z,6.20
2023-02-07T00:56:26.830Z,6.20
2023-02-07T00:58:56.467Z,6.30
2023-02-07T01:01:24.830Z,6.30
2023-02-07T01:03:52.358Z,6.20
2023-02-07T01:06:20.988Z,6.20
2023-02-07T01:08:48.674Z,6.00
2023-02-07T01:11:18.770Z,6.10
2023-02-07T01:13:46.576Z,6.10
2023-02-07T01:16:19.518Z,6.10
2023-02-07T01:18:47.730Z,6.20
2023-02-07T01:21:25.956Z,6.20
2023-02-07T01:23:56.742Z,6.30
2023-02-07T01:26:25.848Z,6.30
2023-02-07T01:28:55.197Z,6.20
2023-02-07T01:31:23.898Z,6.30
2023-02-07T01:33:59.973Z,6.20
2023-02-07T01:36:29.751Z,6.20
2023-02-07T01:38:57.944Z,6.30
2023-02-07T01:41:27.839Z,6.10
2023-02-07T01:44:04.714Z,6.10
2023-02-07T01:46:34.189Z,6.20
2023-02-07T01:49:09.970Z,6.30
2023-02-07T01:51:41.232Z,6.20
2023-02-07T01:54:11.663Z,6.30
2023-02-07T01:56:45.452Z,6.10
2023-02-07T01:59:13.269Z,6.20
2023-02-07T02:01:42.060Z,6.20
2023-02-07T02:04:09.582Z,6.30
2023-02-07T02:06:38.294Z,6.10
2023-02-07T02:09:15.271Z,6.10
2023-02-07T02:12:21.348Z,6.20
2023-02-07T02:15:23.284Z,6.30
2023-02-07T02:17:56.137Z,6.20
2023-02-07T02:21:18.129Z,6.10
2023-02-07T02:24:02.215Z,6.30
2023-02-07T02:26:55.946Z,6.30
2023-02-07T02:29:38.469Z,6.10
2023-02-07T02:32:33.613Z,6.30
2023-02-07T02:35:29.094Z,6.20
2023-02-07T02:38:19.315Z,6.10
2023-02-07T02:40:57.592Z,6.10
2023-02-07T02:43:43.460Z,6.20
2023-02-07T02:46:29.081Z,6.10
2023-02-07T02:48:59.847Z,6.10
2023-02-07T02:51:29.946Z,6.10
2023-02-07T02:53:59.895Z,5.90
2023-02-07T02:56:47.237Z,6.00
2023-02-07T02:59:41.328Z,6.00
2023-02-07T03:02:31.440Z,6.00
2023-02-07T03:05:07.759Z,6.10
2023-02-07T03:07:51.112Z,6.10
2023-02-07T03:10:25.658Z,6.10
2023-02-07T03:13:19.756Z,6.00
2023-02-07T03:16:24.139Z,5.90
2023-02-07T03:19:05.305Z,6.00
2023-02-07T03:21:39.040Z,5.80
2023-02-07T03:24:14.244Z,5.80
2023-02-07T03:26:45.066Z,5.70
2023-02-07T03:29:14.887Z,5.60
2023-02-07T03:31:46.463Z,5.60
2023-02-07T03:34:22.717Z,5.60
2023-02-07T03:36:58.270Z,5.50
2023-02-07T03:39:26.437Z,5.50
2023-02-07T03:41:57.763Z,5.40
2023-02-07T03:44:28.297Z,5.40
2023-02-07T03:46:55.917Z,5.40
2023-02-07T03:49:23.438Z,5.40
2023-02-07T03:51:52.021Z,5.50
2023-02-07T03:54:19.504Z,5.40
2023-02-07T03:56:47.135Z,5.50
2023-02-07T03:59:14.641Z,5.70
2023-02-07T04:01:42.720Z,5.70
2023-02-07T04:04:11.614Z,5.70
2023-02-07T04:06:40.141Z,5.70
2023-02-07T04:09:08.722Z,5.60
2023-02-07T04:11:37.209Z,5.80
2023-02-07T04:14:04.756Z,5.70
2023-02-07T04:16:32.314Z,5.70
2023-02-07T04:18:59.915Z,5.60
2023-02-07T04:21:27.434Z,5.60
2023-02-07T04:23:54.894Z,5.70
2023-02-07T04:26:22.518Z,5.60
2023-02-07T04:28:50.994Z,5.60
2023-02-07T04:31:18.476Z,5.70
2023-02-07T04:33:46.068Z,5.70
2023-02-07T04:36:14.222Z,5.60
2023-02-07T04:38:41.816Z,5.60
2023-02-07T04:41:09.312Z,5.70
2023-02-07T04:43:37.946Z,5.60
2023-02-07T04:46:07.541Z,5.60
2023-02-07T04:48:37.741Z,5.50
2023-02-07T04:51:06.508Z,5.60
2023-02-07T04:53:34.334Z,5.50
2023-02-07T04:56:01.910Z,5.70
2023-02-07T04:58:29.331Z,5.60
2023-02-07T05:00:56.884Z,5.70
2023-02-07T05:03:24.432Z,5.70
2023-02-07T05:05:54.613Z,5.60
2023-02-07T05:08:22.934Z,5.60
2023-02-07T05:10:55.357Z,5.60
2023-02-07T05:13:24.302Z,5.60
2023-02-07T05:15:52.173Z,5.70
2023-02-07T05:18:20.850Z,5.70
2023-02-07T05:20:49.207Z,5.70
2023-02-07T05:23:17.792Z,5.90
2023-02-07T05:25:45.316Z,5.80
2023-02-07T05:28:12.849Z,5.90
2023-02-07T05:30:40.401Z,5.90
2023-02-07T05:33:08.114Z,5.90
2023-02-07T05:35:37.107Z,5.80
2023-02-07T05:38:07.596Z,5.80
2023-02-07T05:40:36.589Z,6.00
2023-02-07T05:43:04.663Z,5.90
2023-02-07T05:45:32.912Z,6.00
2023-02-07T05:48:00.569Z,5.90
2023-02-07T05:50:28.742Z,6.00
2023-02-07T05:53:07.347Z,5.90
2023-02-07T05:55:34.915Z,5.90
2023-02-07T05:58:02.510Z,6.00
2023-02-07T06:00:30.072Z,5.90
2023-02-07T06:02:57.518Z,6.10
2023-02-07T06:05:25.190Z,5.90
2023-02-07T06:07:52.638Z,6.10
2023-02-07T06:10:20.324Z,6.00
2023-02-07T06:12:47.809Z,6.00
2023-02-07T06:15:15.366Z,6.00
2023-02-07T06:17:42.770Z,5.90
2023-02-07T06:20:10.828Z,5.90
2023-02-07T06:22:38.378Z,5.80
2023-02-07T06:25:07.084Z,5.90
2023-02-07T06:27:34.508Z,5.70
2023-02-07T06:30:02.232Z,5.70
2023-02-07T06:32:34.302Z,5.60
2023-02-07T06:35:01.930Z,5.60
2023-02-07T06:37:29.613Z,5.60
2023-02-07T06:39:57.222Z,5.60
2023-02-07T06:42:24.820Z,5.70
2023-02-07T06:44:52.359Z,5.50
2023-02-07T06:47:20.857Z,5.70
2023-02-07T06:49:48.619Z,5.50
2023-02-07T06:52:16.454Z,5.60
2023-02-07T06:54:44.017Z,5.50
2023-02-07T06:57:11.714Z,5.40
2023-02-07T06:59:39.236Z,5.40
2023-02-07T07:02:06.967Z,5.40
2023-02-07T07:04:34.725Z,5.40
2023-02-07T07:07:02.144Z,5.20
2023-02-07T07:09:29.710Z,5.30
2023-02-07T07:11:57.282Z,5.20
2023-02-07T07:14:25.218Z,5.30
2023-02-07T07:16:52.766Z,5.20
2023-02-07T07:19:20.264Z,5.10
2023-02-07T07:21:47.709Z,5.00
2023-02-07T07:24:15.224Z,5.00
2023-02-07T07:26:49.800Z,4.90
2023-02-07T07:29:18.888Z,4.90
2023-02-07T07:31:47.433Z,4.90
2023-02-07T07:34:15.254Z,4.90
2023-02-07T07:36:42.901Z,5.10
2023-02-07T07:39:11.870Z,4.80
2023-02-07T07:41:39.868Z,4.80
2023-02-07T07:44:12.650Z,4.70
2023-02-07T07:46:40.280Z,4.80
2023-02-07T07:49:07.925Z,4.70
2023-02-07T07:51:36.643Z,4.60
2023-02-07T07:54:04.277Z,4.50
2023-02-07T07:56:32.884Z,4.60
2023-02-07T07:59:05.919Z,4.60
2023-02-07T08:01:39.581Z,4.60
2023-02-07T08:04:07.089Z,4.50
2023-02-07T08:06:34.718Z,4.40
2023-02-07T08:09:02.274Z,4.50
2023-02-07T08:11:30.113Z,4.50
2023-02-07T08:13:58.063Z,4.40
2023-02-07T08:16:25.805Z,4.50
2023-02-07T08:18:53.403Z,4.60
2023-02-07T08:21:21.210Z,4.60
2023-02-07T08:23:48.803Z,4.60
2023-02-07T08:26:16.684Z,4.70
2023-02-07T08:28:44.247Z,4.70
2023-02-07T08:31:12.412Z,4.70
2023-02-07T08:33:40.102Z,4.80
2023-02-07T08:36:10.298Z,4.80
2023-02-07T08:38:38.386Z,4.90
2023-02-07T08:41:06.168Z,4.90
2023-02-07T08:43:33.788Z,5.00
2023-02-07T08:46:01.578Z,5.00
2023-02-07T08:48:29.645Z,5.30
2023-02-07T08:50:57.648Z,5.20
2023-02-07T08:53:25.187Z,5.40
2023-02-07T08:55:52.717Z,5.40
2023-02-07T08:58:20.609Z,5.50
2023-02-07T09:00:48.093Z,5.80
2023-02-07T09:03:15.913Z,5.70
2023-02-07T09:05:43.416Z,5.80
2023-02-07T09:08:11.030Z,5.80
2023-02-07T09:10:38.932Z,5.80
2023-02-07T09:13:06.706Z,5.90
2023-02-07T09:15:34.142Z,6.00
2023-02-07T09:18:01.672Z,6.20
2023-02-07T09:20:29.152Z,6.10
2023-02-07T09:23:15.429Z,6.20
2023-02-07T09:25:43.093Z,6.10
2023-02-07T09:28:11.007Z,6.10
2023-02-07T09:30:42.048Z,6.10
2023-02-07T09:33:12.882Z,6.20
2023-02-07T09:35:46.552Z,6.30
2023-02-07T09:38:16.851Z,6.40
2023-02-07T09:40:45.730Z,6.70
2023-02-07T09:43:40.312Z,6.80
2023-02-07T09:46:21.506Z,6.90
2023-02-07T09:48:55.430Z,7.20
2023-02-07T09:51:24.424Z,7.40
2023-02-07T09:53:59.478Z,7.30
2023-02-07T09:56:30.031Z,7.50
2023-02-07T09:59:38.245Z,7.50
2023-02-07T10:02:31.825Z,7.60
2023-02-07T10:05:04.828Z,7.70
2023-02-07T10:07:33.208Z,7.80
2023-02-07T10:10:00.920Z,7.80
2023-02-07T10:13:14.469Z,7.70
2023-02-07T10:15:45.109Z,7.80
2023-02-07T10:18:26.439Z,7.80
2023-02-07T10:20:59.188Z,7.80
2023-02-07T10:23:46.278Z,7.80
2023-02-07T10:26:42.979Z,7.80
2023-02-07T10:29:29.002Z,8.00
2023-02-07T10:32:01.250Z,7.90
2023-02-07T10:34:34.946Z,8.00
2023-02-07T10:37:16.059Z,8.00
2023-02-07T10:39:51.892Z,8.10
2023-02-07T10:42:20.383Z,8.30
2023-02-07T10:44:47.987Z,8.30
2023-02-07T10:47:17.975Z,8.50
2023-02-07T10:49:51.532Z,8.50
2023-02-07T10:52:42.961Z,8.70
2023-02-07T10:55:12.057Z,8.70
2023-02-07T10:57:45.969Z,9.00
2023-02-07T11:00:39.107Z,9.00
2023-02-07T11:03:13.036Z,9.10
2023-02-07T11:05:58.608Z,9.10
2023-02-07T11:08:34.802Z,9.10
2023-02-07T11:11:30.803Z,9.10
2023-02-07T11:14:04.606Z,9.20
2023-02-07T11:16:32.776Z,9.10
2023-02-07T11:19:05.344Z,9.20
2023-02-07T11:21:42.795Z,9.20
2023-02-07T11:24:19.244Z,9.30
2023-02-07T11:27:04.642Z,9.30
2023-02-07T11:29:37.322Z,9.30
2023-02-07T11:32:05.735Z,9.30
2023-02-07T11:34:35.983Z,9.30
2023-02-07T11:37:33.449Z,9.40
2023-02-07T11:40:19.579Z,9.40
2023-02-07T11:42:57.877Z,9.40
2023-02-07T11:45:27.299Z,9.60
2023-02-07T11:47:57.324Z,9.60
2023-02-07T11:50:43.480Z,9.60
2023-02-07T11:53:24.740Z,9.60
2023-02-07T11:55:54.607Z,9.50
2023-02-07T11:58:41.882Z,9.70
2023-02-07T12:01:14.805Z,9.70
2023-02-07T12:03:50.611Z,9.80
2023-02-07T12:06:21.287Z,9.80
2023-02-07T12:08:50.343Z,9.80
2023-02-07T12:11:34.112Z,9.90
2023-02-07T12:14:10.923Z,10.00
2023-02-07T12:16:46.577Z,10.20
2023-02-07T12:19:22.650Z,10.20
2023-02-07T12:21:53.706Z,10.30
2023-02-07T12:24:36.522Z,10.20
2023-02-07T12:27:15.556Z,10.10
2023-02-07T12:29:52.497Z,10.00
2023-02-07T12:32:38.155Z,10.00
2023-02-07T12:35:06.352Z,10.00
2023-02-07T12:37:59.697Z,9.90
2023-02-07T12:40:39.919Z,9.80
2023-02-07T12:43:26.208Z,9.80
2023-02-07T12:46:02.690Z,9.80
2023-02-07T12:48:30.575Z,9.70
2023-02-07T12:51:16.687Z,9.60
2023-02-07T12:53:55.766Z,9.60
2023-02-07T12:56:41.625Z,9.50
2023-02-07T12:59:21.005Z,9.20
2023-02-07T13:02:10.370Z,9.10
2023-02-07T13:04:57.408Z,9.10
2023-02-07T13:07:24.876Z,9.00
2023-02-07T13:10:24.337Z,9.00
2023-02-07T13:12:51.870Z,9.00
2023-02-07T13:15:56.930Z,9.00
2023-02-07T13:18:36.234Z,8.90
2023-02-07T13:21:20.012Z,8.80
2023-02-07T13:23:49.549Z,8.90
2023-02-07T13:26:21.321Z,8.80
2023-02-07T13:28:54.806Z,8.80
2023-02-07T13:31:41.089Z,8.80
2023-02-07T13:34:37.101Z,8.80
2023-02-07T13:37:16.442Z,8.90
2023-02-07T13:39:50.853Z,9.00
2023-02-07T13:42:42.986Z,9.10
2023-02-07T13:45:31.614Z,9.00
2023-02-07T13:48:03.475Z,9.00
2023-02-07T13:50:45.745Z,9.10
2023-02-07T13:53:31.127Z,9.10
2023-02-07T13:56:04.059Z,9.10
2023-02-07T13:59:10.294Z,9.00
2023-02-07T14:01:50.912Z,9.00
2023-02-07T14:04:20.231Z,9.00
2023-02-07T14:06:53.495Z,9.00
2023-02-07T14:09:50.546Z,8.90
2023-02-07T14:12:28.694Z,8.90
2023-02-07T14:15:16.802Z,8.90
2023-02-07T14:17:44.229Z,8.80
2023-02-07T14:20:34.812Z,8.80
2023-02-07T14:23:14.286Z,8.70
2023-02-07T14:25:46.089Z,8.70
2023-02-07T14:28:33.677Z,8.70
2023-02-07T14:31:12.457Z,8.60
2023-02-07T14:33:40.419Z,8.60
2023-02-07T14:36:07.929Z,8.60
2023-02-07T14:38:39.867Z,8.60
2023-02-07T14:41:12.733Z,8.70
2023-02-07T14:44:07.683Z,8.60
2023-02-07T14:46:38.473Z,8.60
2023-02-07T14:49:07.473Z,8.50
2023-02-07T14:52:05.054Z,8.50
2023-02-07T14:54:54.302Z,8.40
2023-02-07T14:57:49.036Z,8.50
2023-02-07T15:00:33.664Z,8.40
2023-02-07T15:03:05.357Z,8.40
2023-02-07T15:06:00.365Z,8.40
2023-02-07T15:08:30.483Z,8.30
2023-02-07T15:11:04.891Z,8.30
2023-02-07T15:13:34.823Z,8.30
2023-02-07T15:16:14.590Z,8.40
2023-02-07T15:18:53.416Z,8.20
2023-02-07T15:21:26.700Z,8.20
2023-02-07T15:24:00.550Z,8.30
2023-02-07T15:26:28.140Z,8.30
2023-02-07T15:29:04.714Z,8.20
2023-02-07T15:31:39.309Z,8.30
2023-02-07T15:34:15.334Z,8.20
2023-02-07T15:36:46.114Z,8.30
2023-02-07T15:39:25.011Z,8.40
2023-02-07T15:41:54.613Z,8.30
2023-02-07T15:44:26.262Z,8.30
2023-02-07T15:46:59.296Z,8.30
2023-02-07T15:49:36.755Z,8.20
2023-02-07T15:52:15.712Z,8.20
2023-02-07T15:54:51.672Z,8.10
2023-02-07T15:57:28.564Z,8.20
2023-02-07T16:00:02.267Z,8.10
2023-02-07T16:02:47.498Z,8.20
2023-02-07T16:05:46.527Z,8.20
2023-02-07T16:08:38.158Z,8.10
2023-02-07T16:11:20.080Z,8.10
2023-02-07T16:13:59.335Z,8.10
2023-02-07T16:16:34.384Z,8.10
2023-02-07T16:19:08.645Z,8.20
2023-02-07T16:21:37.601Z,8.10
2023-02-07T16:24:15.079Z,8.20
2023-02-07T16:26:43.510Z,8.10
2023-02-07T16:29:18.131Z,7.90
2023-02-07T16:31:46.166Z,8.10
2023-02-07T16:34:16.436Z,7.90
2023-02-07T16:36:44.641Z,7.90
2023-02-07T16:39:12.181Z,7.90
2023-02-07T16:41:43.809Z,7.90
2023-02-07T16:44:25.626Z,7.90
2023-02-07T16:46:53.325Z,7.80
2023-02-07T16:49:23.833Z,7.70
2023-02-07T16:51:52.288Z,7.60
2023-02-07T16:54:20.617Z,7.40
2023-02-07T16:56:51.526Z,7.30
2023-02-07T16:59:23.881Z,7.10
2023-02-07T17:01:54.095Z,7.10
2023-02-07T17:04:22.562Z,7.10
2023-02-07T17:06:51.247Z,6.90
2023-02-07T17:09:25.885Z,6.90
2023-02-07T17:11:54.483Z,6.80
2023-02-07T17:14:22.430Z,6.90
2023-02-07T17:16:50.378Z,6.80
2023-02-07T17:19:27.399Z,6.90
2023-02-07T17:21:56.681Z,6.80
2023-02-07T17:24:24.233Z,6.80
2023-02-07T17:26:54.473Z,6.70
2023-02-07T17:29:22.062Z,6.60
2023-02-07T17:31:49.750Z,6.60
2023-02-07T17:34:17.369Z,6.60
2023-02-07T17:36:48.206Z,6.50
2023-02-07T17:39:17.391Z,6.40
2023-02-07T17:41:45.196Z,6.20
2023-02-07T17:44:12.741Z,6.20
2023-02-07T17:46:40.210Z,6.20
2023-02-07T17:49:14.172Z,6.00
2023-02-07T17:51:41.753Z,5.90
2023-02-07T17:54:09.262Z,6.00
2023-02-07T17:56:39.101Z,5.90
2023-02-07T17:59:07.877Z,5.90
2023-02-07T18:01:35.374Z,5.90
2023-02-07T18:04:03.141Z,5.70
2023-02-07T18:06:31.152Z,5.70
2023-02-07T18:08:58.958Z,5.60
2023-02-07T18:11:30.428Z,5.60
2023-02-07T18:13:58.012Z,5.80
2023-02-07T18:16:27.057Z,5.70
2023-02-07T18:18:57.015Z,5.70
2023-02-07T18:21:24.743Z,5.70
2023-02-07T18:23:53.466Z,5.70
2023-02-07T18:26:22.017Z,5.80
2023-02-07T18:28:49.887Z,5.70
2023-02-07T18:31:20.794Z,5.70
2023-02-07T18:33:49.438Z,5.80
2023-02-07T18:36:17.714Z,5.80
2023-02-07T18:38:46.274Z,5.80
2023-02-07T18:41:16.340Z,5.70
2023-02-07T18:43:44.126Z,5.80
2023-02-07T18:46:14.919Z,5.70
2023-02-07T18:48:45.013Z,5.80
2023-02-07T18:51:14.991Z,5.70
2023-02-07T18:53:43.586Z,5.80
2023-02-07T18:56:17.894Z,5.70
2023-02-07T18:58:49.253Z,5.80
2023-02-07T19:01:20.339Z,5.90
2023-02-07T19:03:54.363Z,5.70
2023-02-07T19:06:23.974Z,5.70
2023-02-07T19:08:52.183Z,5.50
2023-02-07T19:11:21.172Z,5.40
2023-02-07T19:13:48.936Z,5.30
2023-02-07T19:16:20.218Z,5.30
2023-02-07T19:18:49.233Z,5.10
2023-02-07T19:21:27.027Z,5.10
2023-02-07T19:23:56.729Z,5.10
2023-02-07T19:26:25.168Z,5.10
2023-02-07T19:28:53.181Z,5.00
2023-02-07T19:31:21.138Z,5.10
2023-02-07T19:33:49.647Z,4.90
2023-02-07T19:36:19.030Z,4.90
2023-02-07T19:38:48.739Z,5.00
2023-02-07T19:41:19.386Z,4.90
2023-02-07T19:43:47.643Z,5.00
2023-02-07T19:46:16.027Z,5.10
2023-02-07T19:48:44.602Z,5.10
2023-02-07T19:51:16.131Z,5.20
2023-02-07T19:53:45.369Z,5.10
2023-02-07T19:56:13.487Z,4.90
2023-02-07T19:58:44.038Z,4.90
2023-02-07T20:01:12.499Z,5.00
2023-02-07T20:03:40.645Z,5.00
2023-02-07T20:06:12.293Z,4.90
2023-02-07T20:08:40.983Z,5.00
2023-02-07T20:11:12.524Z,5.10
2023-02-07T20:13:42.397Z,5.00
2023-02-07T20:16:15.986Z,5.00
2023-02-07T20:18:44.551Z,5.10
2023-02-07T20:21:15.214Z,5.20
2023-02-07T20:23:44.308Z,5.10
2023-02-07T20:26:18.063Z,5.20
2023-02-07T20:28:46.473Z,5.30
2023-02-07T20:31:17.602Z,5.40
2023-02-07T20:33:46.042Z,5.30
2023-02-07T20:36:15.310Z,5.10
2023-02-07T20:38:44.967Z,5.10
2023-02-07T20:41:16.423Z,5.20
2023-02-07T20:43:44.005Z,5.20
2023-02-07T20:46:14.745Z,5.10
2023-02-07T20:48:42.740Z,5.00
2023-02-07T20:51:11.175Z,5.00
2023-02-07T20:53:43.183Z,5.00
2023-02-07T20:56:18.754Z,5.00
2023-02-07T20:58:49.224Z,4.90
2023-02-07T21:01:20.429Z,4.90
2023-02-07T21:03:50.504Z,4.90
2023-02-07T21:06:18.881Z,4.90
2023-02-07T21:08:46.885Z,4.80
2023-02-07T21:11:16.922Z,5.00
2023-02-07T21:13:45.875Z,5.00
2023-02-07T21:16:14.821Z,5.00
2023-02-07T21:18:46.818Z,5.10
2023-02-07T21:21:15.649Z,5.10
2023-02-07T21:23:43.207Z,5.10
2023-02-07T21:26:14.146Z,5.00
2023-02-07T21:28:43.657Z,4.90
2023-02-07T21:31:15.925Z,4.90
2023-02-07T21:33:44.106Z,4.80
2023-02-07T21:36:16.843Z,4.80
2023-02-07T21:38:46.965Z,4.70
2023-02-07T21:41:16.245Z,4.80
2023-02-07T21:43:43.680Z,4.70
2023-02-07T21:46:18.339Z,4.60
2023-02-07T21:48:46.801Z,4.50
2023-02-07T21:51:17.736Z,4.50
2023-02-07T21:53:45.663Z,4.40
2023-02-07T21:56:18.537Z,4.10
2023-02-07T21:58:46.542Z,4.20
2023-02-07T22:01:17.389Z,4.30
2023-02-07T22:03:48.076Z,4.20
2023-02-07T22:06:17.123Z,4.20
2023-02-07T22:08:52.825Z,4.10
2023-02-07T22:11:22.430Z,4.30
2023-02-07T22:13:52.490Z,4.30
2023-02-07T22:16:22.451Z,4.30
2023-02-07T22:18:52.853Z,4.10
2023-02-07T22:21:23.687Z,4.20
2023-02-07T22:23:52.316Z,4.00
2023-02-07T22:26:20.221Z,4.10
2023-02-07T22:28:48.427Z,3.90
2023-02-07T22:31:21.739Z,3.80
2023-02-07T22:33:50.472Z,3.70
2023-02-07T22:36:23.759Z,3.80
2023-02-07T22:38:51.735Z,3.60
2023-02-07T22:41:19.894Z,3.70
2023-02-07T22:43:48.134Z,3.60
2023-02-07T22:46:18.670Z,3.70
2023-02-07T22:48:46.812Z,3.60
2023-02-07T22:51:21.060Z,3.50
2023-02-07T22:53:50.206Z,3.50
2023-02-07T22:56:19.342Z,3.60
2023-02-07T22:58:46.940Z,3.60
2023-02-07T23:01:20.457Z,3.60
2023-02-07T23:03:48.789Z,3.50
2023-02-07T23:06:16.910Z,3.50
2023-02-07T23:08:44.423Z,3.50
2023-02-07T23:11:13.739Z,3.50
2023-02-07T23:13:42.188Z,3.50
2023-02-07T23:16:19.560Z,3.60
2023-02-07T23:18:48.068Z,4.10
2023-02-07T23:21:17.882Z,4.20
2023-02-07T23:23:45.593Z,4.40
2023-02-07T23:26:15.836Z,4.40
2023-02-07T23:28:43.981Z,4.60
2023-02-07T23:31:14.540Z,4.70
2023-02-07T23:33:42.245Z,4.50
2023-02-07T23:36:09.877Z,4.70
2023-02-07T23:38:37.552Z,4.60
2023-02-07T23:41:07.307Z,4.50
2023-02-07T23:43:38.402Z,4.50
2023-02-07T23:46:06.758Z,4.40
2023-02-07T23:48:38.104Z,4.40
2023-02-07T23:51:07.424Z,4.40
2023-02-07T23:53:35.280Z,4.40
2023-02-07T23:56:05.322Z,4.30
2023-02-07T23:58:33.335Z,4.10
